sensor_id;sensor_type;location;lat;lon;timestamp;pressure;altitude;pressure_sealevel;temperature;humidity
33075;BME280;19433;51.292;6.868;2022-11-02T00:01:40;100394.91;;;11.92;79.82
33075;BME280;19433;51.292;6.868;2022-11-02T00:04:06;100396.41;;;11.95;79.97
33075;BME280;19433;51.292;6.868;2022-11-02T00:06:32;100386.63;;;11.86;80.19
33075;BME280;19433;51.292;6.868;2022-11-02T00:08:57;100392.13;;;11.92;80.16
33075;BME280;19433;51.292;6.868;2022-11-02T00:11:23;100392.16;;;11.86;80.65
33075;BME280;19433;51.292;6.868;2022-11-02T00:13:48;100376.19;;;11.88;80.20
33075;BME280;19433;51.292;6.868;2022-11-02T00:16:14;100393.44;;;11.90;80.68
33075;BME280;19433;51.292;6.868;2022-11-02T00:18:42;100395.34;;;11.83;81.85
33075;BME280;19433;51.292;6.868;2022-11-02T00:21:09;100396.84;;;11.79;82.41
33075;BME280;19433;51.292;6.868;2022-11-02T00:23:35;100393.00;;;11.53;83.88
33075;BME280;19433;51.292;6.868;2022-11-02T00:26:01;100385.34;;;11.29;86.43
33075;BME280;19433;51.292;6.868;2022-11-02T00:28:26;100386.16;;;11.36;85.88
33075;BME280;19433;51.292;6.868;2022-11-02T00:30:52;100393.63;;;11.29;86.30
33075;BME280;19433;51.292;6.868;2022-11-02T00:33:18;100388.09;;;11.42;85.96
33075;BME280;19433;51.292;6.868;2022-11-02T00:35:43;100391.06;;;11.41;85.63
33075;BME280;19433;51.292;6.868;2022-11-02T00:38:09;100382.13;;;11.39;85.84
33075;BME280;19433;51.292;6.868;2022-11-02T00:40:35;100394.91;;;11.59;85.29
33075;BME280;19433;51.292;6.868;2022-11-02T00:43:00;100376.16;;;11.61;84.86
33075;BME280;19433;51.292;6.868;2022-11-02T00:45:26;100387.88;;;11.63;84.79
33075;BME280;19433;51.292;6.868;2022-11-02T00:47:51;100387.66;;;11.65;84.80
33075;BME280;19433;51.292;6.868;2022-11-02T00:50:16;100380.84;;;11.68;85.01
33075;BME280;19433;51.292;6.868;2022-11-02T00:52:42;100396.19;;;11.77;84.42
33075;BME280;19433;51.292;6.868;2022-11-02T00:55:08;100394.28;;;11.71;84.89
33075;BME280;19433;51.292;6.868;2022-11-02T00:57:36;100391.06;;;11.67;85.24
33075;BME280;19433;51.292;6.868;2022-11-02T01:00:03;100393.84;;;11.54;86.30
33075;BME280;19433;51.292;6.868;2022-11-02T01:02:29;100398.72;;;11.65;85.66
33075;BME280;19433;51.292;6.868;2022-11-02T01:04:54;100388.09;;;11.55;85.76
33075;BME280;19433;51.292;6.868;2022-11-02T01:07:19;100392.16;;;11.73;85.81
33075;BME280;19433;51.292;6.868;2022-11-02T01:09:44;100391.06;;;11.74;84.93
33075;BME280;19433;51.292;6.868;2022-11-02T01:12:10;100400.47;;;11.59;86.62
33075;BME280;19433;51.292;6.868;2022-11-02T01:14:35;100393.84;;;11.67;85.94
33075;BME280;19433;51.292;6.868;2022-11-02T01:17:01;100406.00;;;11.59;86.73
33075;BME280;19433;51.292;6.868;2022-11-02T01:19:27;100402.78;;;11.62;86.00
33075;BME280;19433;51.292;6.868;2022-11-02T01:21:52;100402.09;;;11.21;88.34
33075;BME280;19433;51.292;6.868;2022-11-02T01:24:17;100387.44;;;11.14;88.81
33075;BME280;19433;51.292;6.868;2022-11-02T01:26:43;100396.16;;;11.17;88.79
33075;BME280;19433;51.292;6.868;2022-11-02T01:29:08;100401.91;;;11.22;88.79
33075;BME280;19433;51.292;6.868;2022-11-02T01:31:33;100397.00;;;11.31;88.18
33075;BME280;19433;51.292;6.868;2022-11-02T01:33:59;100396.41;;;11.55;86.84
33075;BME280;19433;51.292;6.868;2022-11-02T01:36:24;100397.25;;;11.69;86.16
33075;BME280;19433;51.292;6.868;2022-11-02T01:38:49;100397.25;;;11.82;85.85
33075;BME280;19433;51.292;6.868;2022-11-02T01:41:15;100405.16;;;11.85;85.35
33075;BME280;19433;51.292;6.868;2022-11-02T01:43:42;100400.19;;;12.14;83.68
33075;BME280;19433;51.292;6.868;2022-11-02T01:48:50;100398.66;;;12.24;83.03
33075;BME280;19433;51.292;6.868;2022-11-02T01:51:30;100405.06;;;12.25;82.65
33075;BME280;19433;51.292;6.868;2022-11-02T01:54:02;100406.56;;;12.27;82.48
33075;BME280;19433;51.292;6.868;2022-11-02T01:56:30;100401.88;;;12.28;82.37
33075;BME280;19433;51.292;6.868;2022-11-02T01:59:03;100409.53;;;12.32;82.04
33075;BME280;19433;51.292;6.868;2022-11-02T02:01:31;100400.31;;;12.45;81.40
33075;BME280;19433;51.292;6.868;2022-11-02T02:03:56;100414.59;;;12.42;81.32
33075;BME280;19433;51.292;6.868;2022-11-02T02:06:23;100412.72;;;12.36;81.41
33075;BME280;19433;51.292;6.868;2022-11-02T02:08:50;100416.34;;;12.30;81.66
33075;BME280;19433;51.292;6.868;2022-11-02T02:11:29;100420.69;;;12.06;82.87
33075;BME280;19433;51.292;6.868;2022-11-02T02:14:01;100410.44;;;12.00;82.94
33075;BME280;19433;51.292;6.868;2022-11-02T02:16:41;100412.16;;;11.94;83.28
33075;BME280;19433;51.292;6.868;2022-11-02T02:22:27;100399.78;;;12.17;82.14
33075;BME280;19433;51.292;6.868;2022-11-02T02:30:15;100400.88;;;11.89;83.89
33075;BME280;19433;51.292;6.868;2022-11-02T02:32:59;100402.56;;;11.97;83.40
33075;BME280;19433;51.292;6.868;2022-11-02T02:35:45;100402.13;;;12.13;82.60
33075;BME280;19433;51.292;6.868;2022-11-02T02:38:29;100403.78;;;12.27;82.08
33075;BME280;19433;51.292;6.868;2022-11-02T02:41:13;100398.25;;;12.27;81.78
33075;BME280;19433;51.292;6.868;2022-11-02T02:44:01;100392.91;;;12.26;82.26
33075;BME280;19433;51.292;6.868;2022-11-02T02:46:38;100404.44;;;12.23;82.25
33075;BME280;19433;51.292;6.868;2022-11-02T02:49:11;100401.22;;;12.26;81.95
33075;BME280;19433;51.292;6.868;2022-11-02T02:51:39;100392.34;;;11.97;83.13
33075;BME280;19433;51.292;6.868;2022-11-02T02:54:08;100405.97;;;11.92;83.54
33075;BME280;19433;51.292;6.868;2022-11-02T02:56:41;100409.84;;;11.91;83.62
33075;BME280;19433;51.292;6.868;2022-11-02T02:59:17;100397.88;;;11.64;85.11
33075;BME280;19433;51.292;6.868;2022-11-02T03:01:45;100410.00;;;11.50;85.68
33075;BME280;19433;51.292;6.868;2022-11-02T03:04:11;100413.84;;;11.49;86.17
33075;BME280;19433;51.292;6.868;2022-11-02T03:06:37;100420.22;;;11.37;86.78
33075;BME280;19433;51.292;6.868;2022-11-02T03:11:42;100411.09;;;11.56;85.41
33075;BME280;19433;51.292;6.868;2022-11-02T03:14:31;100423.63;;;11.39;86.13
33075;BME280;19433;51.292;6.868;2022-11-02T03:17:08;100424.91;;;11.36;86.17
33075;BME280;19433;51.292;6.868;2022-11-02T03:19:54;100407.84;;;11.19;86.71
33075;BME280;19433;51.292;6.868;2022-11-02T03:22:33;100413.00;;;11.29;86.33
33075;BME280;19433;51.292;6.868;2022-11-02T03:25:49;100424.72;;;11.44;85.38
33075;BME280;19433;51.292;6.868;2022-11-02T03:27:57;100420.66;;;11.47;84.79
33075;BME280;19433;51.292;6.868;2022-11-02T03:30:27;100438.31;;;11.39;85.04
33075;BME280;19433;51.292;6.868;2022-11-02T03:33:01;100446.84;;;11.44;84.33
33075;BME280;19433;51.292;6.868;2022-11-02T03:35:35;100449.19;;;11.60;83.55
33075;BME280;19433;51.292;6.868;2022-11-02T03:38:17;100448.09;;;11.61;83.16
33075;BME280;19433;51.292;6.868;2022-11-02T03:40:46;100452.59;;;11.69;82.99
33075;BME280;19433;51.292;6.868;2022-11-02T03:43:13;100440.44;;;11.50;83.32
33075;BME280;19433;51.292;6.868;2022-11-02T03:45:49;100459.81;;;11.50;83.57
33075;BME280;19433;51.292;6.868;2022-11-02T03:48:17;100450.03;;;11.54;83.66
33075;BME280;19433;51.292;6.868;2022-11-02T03:50:47;100472.38;;;11.53;83.64
33075;BME280;19433;51.292;6.868;2022-11-02T03:53:20;100459.81;;;11.50;83.82
33075;BME280;19433;51.292;6.868;2022-11-02T03:55:57;100464.28;;;11.51;84.02
33075;BME280;19433;51.292;6.868;2022-11-02T03:58:24;100468.97;;;11.51;83.76
33075;BME280;19433;51.292;6.868;2022-11-02T04:00:53;100461.09;;;11.41;83.88
33075;BME280;19433;51.292;6.868;2022-11-02T04:03:22;100480.88;;;11.45;84.50
33075;BME280;19433;51.292;6.868;2022-11-02T04:05:48;100475.75;;;11.35;84.39
33075;BME280;19433;51.292;6.868;2022-11-02T04:08:18;100482.13;;;11.29;85.08
33075;BME280;19433;51.292;6.868;2022-11-02T04:10:45;100493.59;;;11.33;84.56
33075;BME280;19433;51.292;6.868;2022-11-02T04:13:29;100493.59;;;11.33;84.01
33075;BME280;19433;51.292;6.868;2022-11-02T04:16:14;100495.09;;;11.28;84.42
33075;BME280;19433;51.292;6.868;2022-11-02T04:18:39;100493.81;;;11.31;83.30
33075;BME280;19433;51.292;6.868;2022-11-02T04:21:23;100503.59;;;11.34;83.15
33075;BME280;19433;51.292;6.868;2022-11-02T04:23:49;100505.06;;;11.23;84.07
33075;BME280;19433;51.292;6.868;2022-11-02T04:26:34;100499.34;;;11.31;83.31
33075;BME280;19433;51.292;6.868;2022-11-02T04:29:00;100504.63;;;11.13;84.45
33075;BME280;19433;51.292;6.868;2022-11-02T04:31:26;100503.78;;;11.12;84.67
33075;BME280;19433;51.292;6.868;2022-11-02T04:33:51;100514.84;;;11.19;83.99
33075;BME280;19433;51.292;6.868;2022-11-02T04:36:17;100517.22;;;11.28;83.54
33075;BME280;19433;51.292;6.868;2022-11-02T04:38:42;100515.91;;;11.18;84.22
33075;BME280;19433;51.292;6.868;2022-11-02T04:41:13;100522.50;;;11.17;83.73
33075;BME280;19433;51.292;6.868;2022-11-02T04:43:58;100525.50;;;11.22;83.59
33075;BME280;19433;51.292;6.868;2022-11-02T04:46:25;100532.09;;;11.21;83.91
33075;BME280;19433;51.292;6.868;2022-11-02T04:48:51;100528.91;;;11.31;83.58
33075;BME280;19433;51.292;6.868;2022-11-02T04:51:16;100534.66;;;11.22;84.00
33075;BME280;19433;51.292;6.868;2022-11-02T04:53:42;100538.91;;;11.25;83.30
33075;BME280;19433;51.292;6.868;2022-11-02T04:56:08;100532.94;;;11.21;83.35
33075;BME280;19433;51.292;6.868;2022-11-02T04:58:33;100550.41;;;11.28;83.38
33075;BME280;19433;51.292;6.868;2022-11-02T05:01:06;100561.69;;;11.34;82.96
33075;BME280;19433;51.292;6.868;2022-11-02T05:03:32;100552.13;;;11.30;83.52
33075;BME280;19433;51.292;6.868;2022-11-02T05:05:57;100557.88;;;11.35;82.97
33075;BME280;19433;51.292;6.868;2022-11-02T05:08:23;100559.78;;;11.34;83.19
33075;BME280;19433;51.292;6.868;2022-11-02T05:10:48;100558.94;;;11.34;83.77
33075;BME280;19433;51.292;6.868;2022-11-02T05:13:13;100552.97;;;11.30;83.83
33075;BME280;19433;51.292;6.868;2022-11-02T05:15:39;100562.34;;;11.36;83.69
33075;BME280;19433;51.292;6.868;2022-11-02T05:18:04;100566.63;;;11.38;83.41
33075;BME280;19433;51.292;6.868;2022-11-02T05:20:30;100576.22;;;11.42;83.54
33075;BME280;19433;51.292;6.868;2022-11-02T05:22:55;100565.53;;;11.33;83.54
33075;BME280;19433;51.292;6.868;2022-11-02T05:25:21;100588.75;;;11.38;83.37
33075;BME280;19433;51.292;6.868;2022-11-02T05:27:46;100571.94;;;11.40;82.83
33075;BME280;19433;51.292;6.868;2022-11-02T05:30:12;100566.66;;;11.51;82.55
33075;BME280;19433;51.292;6.868;2022-11-02T05:32:37;100569.66;;;11.56;81.96
33075;BME280;19433;51.292;6.868;2022-11-02T05:35:02;100574.72;;;11.40;82.17
33075;BME280;19433;51.292;6.868;2022-11-02T05:37:28;100564.25;;;11.35;82.57
33075;BME280;19433;51.292;6.868;2022-11-02T05:39:58;100576.22;;;11.42;82.59
33075;BME280;19433;51.292;6.868;2022-11-02T05:42:23;100581.53;;;11.44;81.94
33075;BME280;19433;51.292;6.868;2022-11-02T05:44:50;100583.63;;;11.35;82.29
33075;BME280;19433;51.292;6.868;2022-11-02T05:47:15;100588.28;;;11.35;82.11
33075;BME280;19433;51.292;6.868;2022-11-02T05:49:40;100597.91;;;11.39;81.78
33075;BME280;19433;51.292;6.868;2022-11-02T05:52:05;100588.34;;;11.41;82.14
33075;BME280;19433;51.292;6.868;2022-11-02T05:54:31;100591.47;;;11.32;82.26
33075;BME280;19433;51.292;6.868;2022-11-02T05:56:56;100579.50;;;11.18;82.46
33075;BME280;19433;51.292;6.868;2022-11-02T05:59:21;100590.28;;;11.06;83.16
33075;BME280;19433;51.292;6.868;2022-11-02T06:01:46;100609.91;;;11.11;82.93
33075;BME280;19433;51.292;6.868;2022-11-02T06:04:12;100608.22;;;11.17;82.98
33075;BME280;19433;51.292;6.868;2022-11-02T06:06:37;100600.03;;;10.96;83.43
33075;BME280;19433;51.292;6.868;2022-11-02T06:09:02;100611.88;;;10.89;84.11
33075;BME280;19433;51.292;6.868;2022-11-02T06:11:28;100601.81;;;10.75;84.42
33075;BME280;19433;51.292;6.868;2022-11-02T06:13:53;100616.09;;;10.85;83.93
33075;BME280;19433;51.292;6.868;2022-11-02T06:16:18;100619.31;;;10.89;83.59
33075;BME280;19433;51.292;6.868;2022-11-02T06:18:43;100605.22;;;10.77;83.98
33075;BME280;19433;51.292;6.868;2022-11-02T06:21:09;100617.03;;;10.65;84.69
33075;BME280;19433;51.292;6.868;2022-11-02T06:23:35;100631.09;;;10.70;84.97
33075;BME280;19433;51.292;6.868;2022-11-02T06:26:01;100624.09;;;10.67;85.01
33075;BME280;19433;51.292;6.868;2022-11-02T06:28:28;100637.47;;;10.70;84.81
33075;BME280;19433;51.292;6.868;2022-11-02T06:30:54;100641.66;;;10.60;85.09
33075;BME280;19433;51.292;6.868;2022-11-02T06:38:22;100634.50;;;10.44;86.10
33075;BME280;19433;51.292;6.868;2022-11-02T06:43:23;100662.41;;;10.49;85.83
33075;BME280;19433;51.292;6.868;2022-11-02T06:50:59;100666.75;;;10.37;86.14
33075;BME280;19433;51.292;6.868;2022-11-02T07:01:10;100699.66;;;10.81;84.46
33075;BME280;19433;51.292;6.868;2022-11-02T07:08:47;100714.53;;;11.08;82.59
33075;BME280;19433;51.292;6.868;2022-11-02T07:13:41;100739.09;;;11.24;82.63
33075;BME280;19433;51.292;6.868;2022-11-02T07:16:06;100719.50;;;10.91;82.59
33075;BME280;19433;51.292;6.868;2022-11-02T07:21:06;100737.19;;;10.97;83.28
33075;BME280;19433;51.292;6.868;2022-11-02T07:31:19;100763.94;;;11.17;82.04
33075;BME280;19433;51.292;6.868;2022-11-02T07:33:45;100772.03;;;11.19;82.19
33075;BME280;19433;51.292;6.868;2022-11-02T07:41:20;100796.91;;;11.19;82.13
33075;BME280;19433;51.292;6.868;2022-11-02T07:46:21;100808.50;;;11.29;81.96
33075;BME280;19433;51.292;6.868;2022-11-02T07:48:46;100816.25;;;11.40;81.54
33075;BME280;19433;51.292;6.868;2022-11-02T07:51:12;100818.34;;;11.38;81.65
33075;BME280;19433;51.292;6.868;2022-11-02T07:53:37;100843.03;;;11.40;81.44
33075;BME280;19433;51.292;6.868;2022-11-02T07:58:37;100843.59;;;11.56;80.31
33075;BME280;19433;51.292;6.868;2022-11-02T08:01:03;100836.66;;;11.39;80.14
33075;BME280;19433;51.292;6.868;2022-11-02T08:03:28;100835.63;;;11.47;80.66
33075;BME280;19433;51.292;6.868;2022-11-02T08:05:54;100836.06;;;11.44;80.64
33075;BME280;19433;51.292;6.868;2022-11-02T08:08:21;100860.97;;;11.44;80.57
33075;BME280;19433;51.292;6.868;2022-11-02T08:10:49;100853.16;;;11.54;80.40
33075;BME280;19433;51.292;6.868;2022-11-02T08:13:20;100857.06;;;11.66;79.91
33075;BME280;19433;51.292;6.868;2022-11-02T08:15:49;100865.09;;;11.61;80.27
33075;BME280;19433;51.292;6.868;2022-11-02T08:18:19;100860.50;;;11.68;80.12
33075;BME280;19433;51.292;6.868;2022-11-02T08:20:46;100862.28;;;11.76;79.65
33075;BME280;19433;51.292;6.868;2022-11-02T08:23:12;100853.34;;;11.80;79.21
33075;BME280;19433;51.292;6.868;2022-11-02T08:25:39;100862.47;;;12.09;78.42
33075;BME280;19433;51.292;6.868;2022-11-02T08:28:06;100867.25;;;12.21;76.69
33075;BME280;19433;51.292;6.868;2022-11-02T08:30:32;100856.06;;;12.08;77.07
33075;BME280;19433;51.292;6.868;2022-11-02T08:33:05;100857.44;;;12.25;76.61
33075;BME280;19433;51.292;6.868;2022-11-02T08:35:32;100867.16;;;12.49;76.40
33075;BME280;19433;51.292;6.868;2022-11-02T08:37:57;100866.75;;;12.52;75.73
33075;BME280;19433;51.292;6.868;2022-11-02T08:40:24;100866.50;;;12.54;75.47
33075;BME280;19433;51.292;6.868;2022-11-02T08:43:00;100864.72;;;13.00;74.40
33075;BME280;19433;51.292;6.868;2022-11-02T08:45:27;100865.22;;;13.24;71.94
33075;BME280;19433;51.292;6.868;2022-11-02T08:47:53;100869.28;;;13.48;71.53
33075;BME280;19433;51.292;6.868;2022-11-02T08:50:18;100875.88;;;13.80;69.46
33075;BME280;19433;51.292;6.868;2022-11-02T08:52:44;100875.88;;;13.86;69.09
33075;BME280;19433;51.292;6.868;2022-11-02T08:55:12;100884.84;;;13.88;68.89
33075;BME280;19433;51.292;6.868;2022-11-02T08:57:48;100889.00;;;14.30;67.59
33075;BME280;19433;51.292;6.868;2022-11-02T09:00:14;100889.44;;;14.27;66.68
33075;BME280;19433;51.292;6.868;2022-11-02T09:02:40;100896.44;;;14.36;66.80
33075;BME280;19433;51.292;6.868;2022-11-02T09:05:07;100889.91;;;14.18;66.95
33075;BME280;19433;51.292;6.868;2022-11-02T09:07:32;100907.91;;;14.02;67.45
33075;BME280;19433;51.292;6.868;2022-11-02T09:09:57;100900.63;;;14.01;68.23
33075;BME280;19433;51.292;6.868;2022-11-02T09:12:22;100899.97;;;14.05;67.57
33075;BME280;19433;51.292;6.868;2022-11-02T09:14:48;100900.44;;;13.83;67.80
33075;BME280;19433;51.292;6.868;2022-11-02T09:17:13;100908.72;;;13.17;70.65
33075;BME280;19433;51.292;6.868;2022-11-02T09:19:38;100904.72;;;15.07;64.69
33075;BME280;19433;51.292;6.868;2022-11-02T09:22:04;100913.09;;;17.46;54.58
33075;BME280;19433;51.292;6.868;2022-11-02T09:24:29;100907.84;;;18.03;52.24
33075;BME280;19433;51.292;6.868;2022-11-02T09:26:54;100933.03;;;19.58;47.16
33075;BME280;19433;51.292;6.868;2022-11-02T09:29:19;100941.19;;;20.27;44.56
33075;BME280;19433;51.292;6.868;2022-11-02T09:31:45;100925.94;;;20.01;45.45
33075;BME280;19433;51.292;6.868;2022-11-02T09:34:13;100942.56;;;19.74;44.79
33075;BME280;19433;51.292;6.868;2022-11-02T09:36:38;100937.53;;;17.21;51.84
33075;BME280;19433;51.292;6.868;2022-11-02T09:39:03;100924.97;;;15.21;57.82
33075;BME280;19433;51.292;6.868;2022-11-02T09:41:39;100929.28;;;15.48;58.95
33075;BME280;19433;51.292;6.868;2022-11-02T09:44:16;100939.72;;;16.09;56.24
33075;BME280;19433;51.292;6.868;2022-11-02T09:46:44;100936.91;;;19.01;49.50
33075;BME280;19433;51.292;6.868;2022-11-02T09:49:22;100943.31;;;20.20;43.70
33075;BME280;19433;51.292;6.868;2022-11-02T09:51:50;100941.13;;;20.39;43.58
33075;BME280;19433;51.292;6.868;2022-11-02T09:56:56;100947.72;;;22.64;38.93
33075;BME280;19433;51.292;6.868;2022-11-02T09:59:25;100941.34;;;23.36;36.53
33075;BME280;19433;51.292;6.868;2022-11-02T10:01:53;100951.69;;;23.15;36.84
33075;BME280;19433;51.292;6.868;2022-11-02T10:09:53;100952.03;;;20.74;40.92
33075;BME280;19433;51.292;6.868;2022-11-02T10:12:27;100944.75;;;18.87;44.79
33075;BME280;19433;51.292;6.868;2022-11-02T10:15:01;100945.03;;;18.74;44.80
33075;BME280;19433;51.292;6.868;2022-11-02T10:17:29;100959.38;;;20.80;41.43
33075;BME280;19433;51.292;6.868;2022-11-02T10:19:59;100955.13;;;22.28;37.77
33075;BME280;19433;51.292;6.868;2022-11-02T10:22:32;100983.50;;;24.44;34.28
33075;BME280;19433;51.292;6.868;2022-11-02T10:24:59;100976.41;;;24.62;32.14
33075;BME280;19433;51.292;6.868;2022-11-02T10:27:29;100966.50;;;23.58;34.43
33075;BME280;19433;51.292;6.868;2022-11-02T10:30:13;100958.41;;;22.57;35.30
33075;BME280;19433;51.292;6.868;2022-11-02T10:32:40;100965.81;;;22.26;36.75
33075;BME280;19433;51.292;6.868;2022-11-02T10:35:52;100962.69;;;23.22;34.45
33075;BME280;19433;51.292;6.868;2022-11-02T10:41:23;100959.19;;;21.52;37.25
33075;BME280;19433;51.292;6.868;2022-11-02T10:44:19;100960.31;;;17.66;44.20
33075;BME280;19433;51.292;6.868;2022-11-02T10:52:13;100966.75;;;19.63;41.63
33075;BME280;19433;51.292;6.868;2022-11-02T10:54:39;100966.00;;;20.52;39.72
33075;BME280;19433;51.292;6.868;2022-11-02T10:57:10;100974.53;;;21.71;36.68
33075;BME280;19433;51.292;6.868;2022-11-02T10:59:36;100969.69;;;22.62;34.87
33075;BME280;19433;51.292;6.868;2022-11-02T11:02:09;100962.59;;;21.54;36.10
33075;BME280;19433;51.292;6.868;2022-11-02T11:04:35;100962.25;;;22.41;34.98
33075;BME280;19433;51.292;6.868;2022-11-02T11:07:05;100965.09;;;23.61;33.92
33075;BME280;19433;51.292;6.868;2022-11-02T11:09:38;100980.19;;;23.24;33.34
33075;BME280;19433;51.292;6.868;2022-11-02T11:12:19;100978.59;;;23.54;32.88
33075;BME280;19433;51.292;6.868;2022-11-02T11:14:55;100974.19;;;24.34;31.17
33075;BME280;19433;51.292;6.868;2022-11-02T11:17:33;100969.16;;;23.18;32.01
33075;BME280;19433;51.292;6.868;2022-11-02T11:20:00;100982.31;;;22.97;33.39
33075;BME280;19433;51.292;6.868;2022-11-02T11:22:48;100984.63;;;23.10;32.60
33075;BME280;19433;51.292;6.868;2022-11-02T11:25:31;100988.94;;;23.28;32.69
33075;BME280;19433;51.292;6.868;2022-11-02T11:27:57;100982.22;;;23.44;32.58
33075;BME280;19433;51.292;6.868;2022-11-02T11:30:31;100978.72;;;24.35;31.15
33075;BME280;19433;51.292;6.868;2022-11-02T11:32:59;100988.59;;;24.22;30.55
33075;BME280;19433;51.292;6.868;2022-11-02T11:35:28;100989.16;;;24.29;30.83
33075;BME280;19433;51.292;6.868;2022-11-02T11:37:57;100969.63;;;23.77;31.88
33075;BME280;19433;51.292;6.868;2022-11-02T11:40:23;100987.88;;;23.49;31.44
33075;BME280;19433;51.292;6.868;2022-11-02T11:42:52;100984.16;;;23.38;32.06
33075;BME280;19433;51.292;6.868;2022-11-02T11:45:23;100978.66;;;22.17;34.14
33075;BME280;19433;51.292;6.868;2022-11-02T11:47:51;100979.25;;;21.92;34.92
33075;BME280;19433;51.292;6.868;2022-11-02T11:50:17;100968.16;;;20.83;36.90
33075;BME280;19433;51.292;6.868;2022-11-02T11:52:43;100978.59;;;22.07;35.27
33075;BME280;19433;51.292;6.868;2022-11-02T11:57:45;100971.97;;;22.60;33.95
33075;BME280;19433;51.292;6.868;2022-11-02T12:00:27;100980.50;;;23.38;32.98
33075;BME280;19433;51.292;6.868;2022-11-02T12:05:32;100974.50;;;21.66;35.76
33075;BME280;19433;51.292;6.868;2022-11-02T12:08:14;100967.38;;;21.85;35.03
33075;BME280;19433;51.292;6.868;2022-11-02T12:13:49;100949.94;;;19.07;40.19
33075;BME280;19433;51.292;6.868;2022-11-02T12:17:03;100949.38;;;17.76;43.60
33075;BME280;19433;51.292;6.868;2022-11-02T12:19:47;100940.06;;;17.82;44.30
33075;BME280;19433;51.292;6.868;2022-11-02T12:22:53;100938.41;;;20.10;39.60
33075;BME280;19433;51.292;6.868;2022-11-02T12:28:42;100944.78;;;20.78;37.41
33075;BME280;19433;51.292;6.868;2022-11-02T12:39:28;100940.31;;;16.91;46.55
33075;BME280;19433;51.292;6.868;2022-11-02T12:42:27;100936.34;;;16.44;48.62
33075;BME280;19433;51.292;6.868;2022-11-02T12:47:58;100942.69;;;15.90;52.01
33075;BME280;19433;51.292;6.868;2022-11-02T12:53:30;100940.28;;;15.37;53.90
33075;BME280;19433;51.292;6.868;2022-11-02T12:56:00;100933.44;;;15.01;55.30
33075;BME280;19433;51.292;6.868;2022-11-02T12:58:34;100921.31;;;14.89;56.36
33075;BME280;19433;51.292;6.868;2022-11-02T13:01:15;100923.09;;;14.70;57.92
33075;BME280;19433;51.292;6.868;2022-11-02T13:03:50;100931.16;;;14.85;57.56
33075;BME280;19433;51.292;6.868;2022-11-02T13:06:22;100930.53;;;14.83;58.02
33075;BME280;19433;51.292;6.868;2022-11-02T13:08:58;100929.81;;;14.50;58.49
33075;BME280;19433;51.292;6.868;2022-11-02T13:11:30;100920.00;;;14.34;58.58
33075;BME280;19433;51.292;6.868;2022-11-02T13:13:58;100910.59;;;14.28;60.11
33075;BME280;19433;51.292;6.868;2022-11-02T13:16:38;100914.00;;;14.43;59.13
33075;BME280;19433;51.292;6.868;2022-11-02T13:19:14;100910.53;;;14.61;58.77
33075;BME280;19433;51.292;6.868;2022-11-02T13:21:45;100908.69;;;14.87;58.31
33075;BME280;19433;51.292;6.868;2022-11-02T13:24:20;100919.66;;;14.75;58.53
33075;BME280;19433;51.292;6.868;2022-11-02T13:26:48;100907.03;;;14.79;58.77
33075;BME280;19433;51.292;6.868;2022-11-02T13:29:16;100906.75;;;14.87;58.75
33075;BME280;19433;51.292;6.868;2022-11-02T13:31:52;100902.69;;;14.90;57.65
33075;BME280;19433;51.292;6.868;2022-11-02T13:34:40;100901.13;;;15.00;58.13
33075;BME280;19433;51.292;6.868;2022-11-02T13:37:16;100903.44;;;15.10;57.87
33075;BME280;19433;51.292;6.868;2022-11-02T13:39:48;100906.59;;;15.13;57.76
33075;BME280;19433;51.292;6.868;2022-11-02T13:42:43;100894.22;;;15.09;57.47
33075;BME280;19433;51.292;6.868;2022-11-02T13:47:51;100890.63;;;15.02;57.86
33075;BME280;19433;51.292;6.868;2022-11-02T13:50:23;100891.69;;;15.01;57.83
33075;BME280;19433;51.292;6.868;2022-11-02T13:53:02;100896.00;;;14.97;58.77
33075;BME280;19433;51.292;6.868;2022-11-02T13:58:24;100888.44;;;14.73;57.08
33075;BME280;19433;51.292;6.868;2022-11-02T14:00:53;100890.56;;;14.71;57.35
33075;BME280;19433;51.292;6.868;2022-11-02T14:03:26;100898.25;;;14.75;57.34
33075;BME280;19433;51.292;6.868;2022-11-02T14:05:56;100879.94;;;14.61;57.35
33075;BME280;19433;51.292;6.868;2022-11-02T14:08:33;100879.22;;;14.72;57.38
33075;BME280;19433;51.292;6.868;2022-11-02T14:27:00;100874.03;;;14.45;58.64
33075;BME280;19433;51.292;6.868;2022-11-02T14:32:38;100872.13;;;14.25;59.70
33075;BME280;19433;51.292;6.868;2022-11-02T14:37:52;100871.94;;;14.20;60.56
33075;BME280;19433;51.292;6.868;2022-11-02T14:40:38;100860.00;;;14.13;62.14
33075;BME280;19433;51.292;6.868;2022-11-02T14:43:51;100865.13;;;14.16;60.96
33075;BME280;19433;51.292;6.868;2022-11-02T14:49:20;100852.97;;;14.04;61.76
33075;BME280;19433;51.292;6.868;2022-11-02T14:52:05;100856.19;;;14.01;61.57
33075;BME280;19433;51.292;6.868;2022-11-02T14:54:36;100842.31;;;13.88;61.92
33075;BME280;19433;51.292;6.868;2022-11-02T14:57:22;100852.13;;;13.90;61.71
33075;BME280;19433;51.292;6.868;2022-11-02T14:59:53;100850.88;;;13.80;61.61
33075;BME280;19433;51.292;6.868;2022-11-02T15:02:27;100852.81;;;13.66;62.71
33075;BME280;19433;51.292;6.868;2022-11-02T15:04:56;100837.69;;;13.55;62.39
33075;BME280;19433;51.292;6.868;2022-11-02T15:10:00;100829.78;;;13.26;62.41
33075;BME280;19433;51.292;6.868;2022-11-02T15:12:36;100829.34;;;13.22;62.97
33075;BME280;19433;51.292;6.868;2022-11-02T15:17:51;100837.19;;;12.79;63.17
33075;BME280;19433;51.292;6.868;2022-11-02T15:20:31;100835.66;;;12.77;63.59
33075;BME280;19433;51.292;6.868;2022-11-02T15:23:02;100832.00;;;12.69;63.95
33075;BME280;19433;51.292;6.868;2022-11-02T15:25:38;100825.13;;;12.46;65.74
33075;BME280;19433;51.292;6.868;2022-11-02T15:28:10;100815.97;;;12.45;66.07